MST,Max TemperatureF,Mean TemperatureF,Min TemperatureF,Max Dew PointF,MeanDew PointF,Min DewpointF,Max Humidity, Mean Humidity, Min Humidity, Max Sea Level PressureIn, Mean Sea Level PressureIn, Min Sea Level PressureIn, Max VisibilityMiles, Mean VisibilityMiles, Min VisibilityMiles, Max Wind SpeedMPH, Mean Wind SpeedMPH, Max Gust SpeedMPH,PrecipitationIn, CloudCover, Events, WindDirDegrees
2013-2-1,42,32,21,23,15,10,68,51,34,30.31,30.13,30.04,10,10,5,30,6,41,0.00,1,,284
2013-2-2,45,32,18,21,12,5,67,52,36,30.39,30.34,30.27,10,10,10,13,3,15,0.00,0,,243
2013-2-3,37,27,16,21,15,8,74,64,53,30.26,30.11,30.00,10,10,9,14,4,15,0.00,0,,263
2013-2-4,48,35,21,21,14,8,57,42,26,30.03,29.94,29.86,10,10,10,16,4,22,0.00,0,,216
2013-2-5,46,35,23,25,19,14,68,53,38,29.99,29.90,29.81,10,10,10,14,5,16,0.00,0,,164
2013-2-6,45,34,22,18,14,4,68,48,28,30.13,29.94,29.78,10,10,10,18,5,23,0.00,1,,264
2013-2-7,35,25,15,12,8,4,62,49,35,30.21,30.10,30.01,10,10,8,12,4,15,0.00,0,,244
2013-2-8,31,23,14,25,18,3,92,68,43,30.01,29.85,29.75,10,4,0,10,4,13,0.26,6,Fog-Snow,302
2013-2-9,27,23,19,25,22,16,100,89,77,29.83,29.74,29.66,10,2,0,12,5,14,0.47,8,Fog-Snow,299
2013-2-10,25,19,13,21,16,7,96,82,67,30.18,29.92,29.71,10,5,0,16,5,21,0.07,8,Fog-Snow,308
2013-2-11,14,6,-3,7,1,-3,88,75,61,30.24,30.18,29.99,10,9,1,8,1,8,0.00,1,,23
2013-2-12,19,8,-4,8,2,-5,95,80,64,30.34,30.28,30.21,10,9,5,8,2,9,0.00,1,,296
2013-2-13,43,24,4,22,13,0,88,64,39,30.22,30.10,30.00,10,10,8,18,5,24,0.00,0,,235
2013-2-14,28,18,7,18,13,4,81,68,55,30.41,30.28,30.05,10,8,2,13,3,14,T,4,Snow,212
2013-2-15,36,20,4,17,11,1,83,61,38,30.52,30.41,30.32,10,10,10,15,2,15,0.00,0,,142
2013-2-16,43,30,16,22,15,10,68,56,43,30.30,30.16,29.89,10,10,10,13,3,14,0.00,0,,154
2013-2-17,41,30,19,23,18,8,92,60,27,29.99,29.82,29.68,10,7,0,22,7,25,0.07,4,Fog-Snow,352
2013-2-18,31,21,10,16,7,2,84,61,38,30.13,30.08,29.98,10,10,10,13,4,14,0.00,0,,179
2013-2-19,30,21,11,13,9,5,76,60,43,30.04,29.91,29.79,10,10,10,10,3,13,0.00,0,,237
2013-2-20,35,23,11,16,12,8,83,62,41,29.82,29.76,29.70,10,10,10,9,2,9,0.00,1,,258
2013-2-21,29,22,15,19,16,11,91,77,63,29.97,29.89,29.73,10,8,2,9,3,12,T,6,Snow,157
2013-2-22,33,22,10,12,8,5,84,62,39,30.04,29.95,29.82,10,10,8,15,4,18,0.00,1,,193
2013-2-23,37,26,14,25,16,4,96,67,38,29.90,29.72,29.61,10,6,0,21,5,26,0.32,4,Fog-Snow,347
2013-2-24,31,22,13,19,14,5,92,69,46,30.19,30.04,29.83,10,6,1,16,7,20,0.09,4,Snow,295
2013-2-25,28,16,4,13,7,0,80,65,50,30.18,30.05,29.91,10,10,10,9,2,10,0.00,0,,314
2013-2-26,34,25,16,17,12,5,74,57,39,30.28,30.07,29.93,10,8,1,16,8,20,T,6,Snow,280
2013-2-27,33,21,8,15,8,2,80,57,33,30.38,30.33,30.28,10,10,10,16,3,18,0.00,0,,167
2013-2-28,39,24,9,15,9,1,67,51,34,30.38,30.32,30.25,10,10,10,15,5,18,0.00,1,,143